Terminal Aerodrome Forecast
Issued by NWS

Home | Current Version | Previous Version | Text Only | Print | Product List | Glossary On
Versions: 1 2 3 4 5 6 7 8 9 10 11 12 13 14 15 16 17
000
FTAK31 PAJN 192339
TAFAGY
TAF
PAGY 192339Z 2000/2024 21016G28KT P6SM -SHRA OVC040
     FM200300 21020G30KT 6SM -SHRA SCT015 OVC030
     FM201400 21014G20KT P6SM -SHRA SCT015 OVC030
      AMD LTD TO CLD VIS AND WIND=

USA.gov is the U.S. government's official web portal to all federal, state and local government web resources and services.